sensor_id;sensor_type;location;lat;lon;timestamp;temperature;humidity
25914;DHT22;13718;50.922;5.346;2024-03-02T00:02:10;10.40;99.90
25914;DHT22;13718;50.922;5.346;2024-03-02T00:04:36;10.30;99.90
25914;DHT22;13718;50.922;5.346;2024-03-02T00:07:02;10.30;99.90
25914;DHT22;13718;50.922;5.346;2024-03-02T00:09:28;10.20;99.90
25914;DHT22;13718;50.922;5.346;2024-03-02T00:11:54;9.90;99.90
25914;DHT22;13718;50.922;5.346;2024-03-02T00:14:20;9.90;99.90
25914;DHT22;13718;50.922;5.346;2024-03-02T00:16:45;9.90;99.90
25914;DHT22;13718;50.922;5.346;2024-03-02T00:19:11;9.80;99.90
25914;DHT22;13718;50.922;5.346;2024-03-02T00:21:37;9.60;99.90
25914;DHT22;13718;50.922;5.346;2024-03-02T00:24:17;9.50;99.90
25914;DHT22;13718;50.922;5.346;2024-03-02T00:26:44;9.50;99.90
25914;DHT22;13718;50.922;5.346;2024-03-02T00:29:15;9.20;99.90
25914;DHT22;13718;50.922;5.346;2024-03-02T00:31:41;9.10;99.90
25914;DHT22;13718;50.922;5.346;2024-03-02T00:34:06;9.30;99.90
25914;DHT22;13718;50.922;5.346;2024-03-02T00:36:32;9.30;99.90
25914;DHT22;13718;50.922;5.346;2024-03-02T00:38:57;9.20;99.90
25914;DHT22;13718;50.922;5.346;2024-03-02T00:41:29;9.10;99.90
25914;DHT22;13718;50.922;5.346;2024-03-02T00:46:24;9.00;99.90
25914;DHT22;13718;50.922;5.346;2024-03-02T00:48:56;9.00;99.90
25914;DHT22;13718;50.922;5.346;2024-03-02T00:51:23;9.00;99.90
25914;DHT22;13718;50.922;5.346;2024-03-02T00:53:49;8.90;99.90
25914;DHT22;13718;50.922;5.346;2024-03-02T00:56:16;8.90;99.90
25914;DHT22;13718;50.922;5.346;2024-03-02T00:58:41;8.90;99.90
25914;DHT22;13718;50.922;5.346;2024-03-02T01:01:07;9.00;99.90
25914;DHT22;13718;50.922;5.346;2024-03-02T01:03:33;8.80;99.90
25914;DHT22;13718;50.922;5.346;2024-03-02T01:05:58;8.90;99.90
25914;DHT22;13718;50.922;5.346;2024-03-02T01:08:24;8.90;99.90
25914;DHT22;13718;50.922;5.346;2024-03-02T01:10:50;9.00;99.90
25914;DHT22;13718;50.922;5.346;2024-03-02T01:13:15;9.00;99.90
25914;DHT22;13718;50.922;5.346;2024-03-02T01:15:41;9.10;99.90
25914;DHT22;13718;50.922;5.346;2024-03-02T01:18:06;9.10;99.90
25914;DHT22;13718;50.922;5.346;2024-03-02T01:20:32;9.10;99.90
25914;DHT22;13718;50.922;5.346;2024-03-02T01:22:57;9.00;99.90
25914;DHT22;13718;50.922;5.346;2024-03-02T01:25:23;9.00;99.90
25914;DHT22;13718;50.922;5.346;2024-03-02T01:27:48;9.00;99.90
25914;DHT22;13718;50.922;5.346;2024-03-02T01:30:14;9.00;99.90
25914;DHT22;13718;50.922;5.346;2024-03-02T01:32:39;9.10;99.90
25914;DHT22;13718;50.922;5.346;2024-03-02T01:35:05;9.00;99.90
25914;DHT22;13718;50.922;5.346;2024-03-02T01:37:30;8.90;99.90
25914;DHT22;13718;50.922;5.346;2024-03-02T01:39:56;8.90;99.90
25914;DHT22;13718;50.922;5.346;2024-03-02T01:42:21;8.90;99.90
25914;DHT22;13718;50.922;5.346;2024-03-02T01:44:47;8.90;99.90
25914;DHT22;13718;50.922;5.346;2024-03-02T01:47:13;8.80;99.90
25914;DHT22;13718;50.922;5.346;2024-03-02T01:49:38;8.70;99.90
25914;DHT22;13718;50.922;5.346;2024-03-02T01:52:06;8.80;99.90
25914;DHT22;13718;50.922;5.346;2024-03-02T01:54:31;8.80;99.90
25914;DHT22;13718;50.922;5.346;2024-03-02T01:56:58;8.80;99.90
25914;DHT22;13718;50.922;5.346;2024-03-02T01:59:23;8.70;99.90
25914;DHT22;13718;50.922;5.346;2024-03-02T02:01:49;8.80;99.90
25914;DHT22;13718;50.922;5.346;2024-03-02T02:04:14;8.90;99.90
25914;DHT22;13718;50.922;5.346;2024-03-02T02:06:40;8.80;99.90
25914;DHT22;13718;50.922;5.346;2024-03-02T02:09:05;8.90;99.90
25914;DHT22;13718;50.922;5.346;2024-03-02T02:11:33;9.10;99.90
25914;DHT22;13718;50.922;5.346;2024-03-02T02:13:59;9.20;99.90
25914;DHT22;13718;50.922;5.346;2024-03-02T02:16:24;9.20;99.90
25914;DHT22;13718;50.922;5.346;2024-03-02T02:18:50;9.20;99.90
25914;DHT22;13718;50.922;5.346;2024-03-02T02:21:15;9.10;99.90
25914;DHT22;13718;50.922;5.346;2024-03-02T02:23:41;9.20;99.90
25914;DHT22;13718;50.922;5.346;2024-03-02T02:26:11;9.20;99.90
25914;DHT22;13718;50.922;5.346;2024-03-02T02:28:37;9.10;99.90
25914;DHT22;13718;50.922;5.346;2024-03-02T02:31:02;9.00;99.90
25914;DHT22;13718;50.922;5.346;2024-03-02T02:33:28;9.00;99.90
25914;DHT22;13718;50.922;5.346;2024-03-02T02:35:54;9.00;99.90
25914;DHT22;13718;50.922;5.346;2024-03-02T02:38:19;9.00;99.90
25914;DHT22;13718;50.922;5.346;2024-03-02T02:40:45;9.00;99.90
25914;DHT22;13718;50.922;5.346;2024-03-02T02:43:10;8.90;99.90
25914;DHT22;13718;50.922;5.346;2024-03-02T02:45:36;9.10;99.90
25914;DHT22;13718;50.922;5.346;2024-03-02T02:48:01;9.10;99.90
25914;DHT22;13718;50.922;5.346;2024-03-02T02:50:28;9.10;99.90
25914;DHT22;13718;50.922;5.346;2024-03-02T02:52:53;9.20;99.90
25914;DHT22;13718;50.922;5.346;2024-03-02T02:55:19;9.00;99.90
25914;DHT22;13718;50.922;5.346;2024-03-02T02:57:44;9.00;99.90
25914;DHT22;13718;50.922;5.346;2024-03-02T03:00:12;9.00;99.90
25914;DHT22;13718;50.922;5.346;2024-03-02T03:02:41;9.10;99.90
25914;DHT22;13718;50.922;5.346;2024-03-02T03:05:07;9.10;99.90
25914;DHT22;13718;50.922;5.346;2024-03-02T03:07:33;9.10;99.90
25914;DHT22;13718;50.922;5.346;2024-03-02T03:10:00;9.00;99.90
25914;DHT22;13718;50.922;5.346;2024-03-02T03:12:25;9.00;99.90
25914;DHT22;13718;50.922;5.346;2024-03-02T03:14:51;8.90;99.90
25914;DHT22;13718;50.922;5.346;2024-03-02T03:17:16;8.80;99.90
25914;DHT22;13718;50.922;5.346;2024-03-02T03:19:42;8.80;99.90
25914;DHT22;13718;50.922;5.346;2024-03-02T03:22:08;8.70;99.90
25914;DHT22;13718;50.922;5.346;2024-03-02T03:24:33;8.70;99.90
25914;DHT22;13718;50.922;5.346;2024-03-02T03:26:59;8.70;99.90
25914;DHT22;13718;50.922;5.346;2024-03-02T03:29:24;8.70;99.90
25914;DHT22;13718;50.922;5.346;2024-03-02T03:31:50;8.80;99.90
25914;DHT22;13718;50.922;5.346;2024-03-02T03:34:15;8.90;99.90
25914;DHT22;13718;50.922;5.346;2024-03-02T03:36:41;8.90;99.90
25914;DHT22;13718;50.922;5.346;2024-03-02T03:39:07;8.80;99.90
25914;DHT22;13718;50.922;5.346;2024-03-02T03:41:32;8.90;99.90
25914;DHT22;13718;50.922;5.346;2024-03-02T03:43:58;9.00;99.90
25914;DHT22;13718;50.922;5.346;2024-03-02T03:46:23;8.90;99.90
25914;DHT22;13718;50.922;5.346;2024-03-02T03:48:49;8.90;99.90
25914;DHT22;13718;50.922;5.346;2024-03-02T03:51:14;8.90;99.90
25914;DHT22;13718;50.922;5.346;2024-03-02T03:53:40;8.90;99.90
25914;DHT22;13718;50.922;5.346;2024-03-02T03:56:05;8.80;99.90
25914;DHT22;13718;50.922;5.346;2024-03-02T03:58:31;8.80;99.90
25914;DHT22;13718;50.922;5.346;2024-03-02T04:00:57;8.80;99.90
25914;DHT22;13718;50.922;5.346;2024-03-02T04:03:22;8.90;99.90
25914;DHT22;13718;50.922;5.346;2024-03-02T04:05:48;9.00;99.90
25914;DHT22;13718;50.922;5.346;2024-03-02T04:08:13;9.00;99.90
25914;DHT22;13718;50.922;5.346;2024-03-02T04:10:39;9.00;99.90
25914;DHT22;13718;50.922;5.346;2024-03-02T04:13:05;9.00;99.90
25914;DHT22;13718;50.922;5.346;2024-03-02T04:15:31;9.00;99.90
25914;DHT22;13718;50.922;5.346;2024-03-02T04:17:56;8.90;99.90
25914;DHT22;13718;50.922;5.346;2024-03-02T04:20:22;9.00;99.90
25914;DHT22;13718;50.922;5.346;2024-03-02T04:22:47;9.00;99.90
25914;DHT22;13718;50.922;5.346;2024-03-02T04:25:13;9.00;99.90
25914;DHT22;13718;50.922;5.346;2024-03-02T04:27:39;8.90;99.90
25914;DHT22;13718;50.922;5.346;2024-03-02T04:30:04;8.70;99.90
25914;DHT22;13718;50.922;5.346;2024-03-02T04:32:30;8.80;99.90
25914;DHT22;13718;50.922;5.346;2024-03-02T04:34:56;8.90;99.90
25914;DHT22;13718;50.922;5.346;2024-03-02T04:37:22;8.80;99.90
25914;DHT22;13718;50.922;5.346;2024-03-02T04:39:48;8.70;99.90
25914;DHT22;13718;50.922;5.346;2024-03-02T04:42:13;8.60;99.90
25914;DHT22;13718;50.922;5.346;2024-03-02T04:44:39;8.70;99.90
25914;DHT22;13718;50.922;5.346;2024-03-02T04:47:04;8.50;99.90
25914;DHT22;13718;50.922;5.346;2024-03-02T04:49:30;8.40;99.90
25914;DHT22;13718;50.922;5.346;2024-03-02T04:51:55;8.40;99.90
25914;DHT22;13718;50.922;5.346;2024-03-02T04:54:22;8.50;99.90
25914;DHT22;13718;50.922;5.346;2024-03-02T04:56:47;8.50;99.90
25914;DHT22;13718;50.922;5.346;2024-03-02T04:59:16;8.40;99.90
25914;DHT22;13718;50.922;5.346;2024-03-02T05:01:43;8.40;99.90
25914;DHT22;13718;50.922;5.346;2024-03-02T05:04:08;8.40;99.90
25914;DHT22;13718;50.922;5.346;2024-03-02T05:06:39;8.30;99.90
25914;DHT22;13718;50.922;5.346;2024-03-02T05:09:06;8.30;99.90
25914;DHT22;13718;50.922;5.346;2024-03-02T05:11:31;8.50;99.90
25914;DHT22;13718;50.922;5.346;2024-03-02T05:14:06;8.50;99.90
25914;DHT22;13718;50.922;5.346;2024-03-02T05:16:34;8.40;99.90
25914;DHT22;13718;50.922;5.346;2024-03-02T05:19:00;8.40;99.90
25914;DHT22;13718;50.922;5.346;2024-03-02T05:21:26;8.40;99.90
25914;DHT22;13718;50.922;5.346;2024-03-02T05:23:51;8.30;99.90
25914;DHT22;13718;50.922;5.346;2024-03-02T05:26:17;8.30;99.90
25914;DHT22;13718;50.922;5.346;2024-03-02T05:28:42;8.30;99.90
25914;DHT22;13718;50.922;5.346;2024-03-02T05:31:11;8.30;99.90
25914;DHT22;13718;50.922;5.346;2024-03-02T05:33:37;8.20;99.90
25914;DHT22;13718;50.922;5.346;2024-03-02T05:36:03;8.00;99.90
25914;DHT22;13718;50.922;5.346;2024-03-02T05:38:28;8.00;99.90
25914;DHT22;13718;50.922;5.346;2024-03-02T05:40:54;8.00;99.90
25914;DHT22;13718;50.922;5.346;2024-03-02T05:43:19;7.90;99.90
25914;DHT22;13718;50.922;5.346;2024-03-02T05:45:45;7.90;99.90
25914;DHT22;13718;50.922;5.346;2024-03-02T05:48:11;8.00;99.90
25914;DHT22;13718;50.922;5.346;2024-03-02T05:50:36;8.00;99.90
25914;DHT22;13718;50.922;5.346;2024-03-02T05:53:02;8.10;99.90
25914;DHT22;13718;50.922;5.346;2024-03-02T05:55:27;8.00;99.90
25914;DHT22;13718;50.922;5.346;2024-03-02T05:57:53;7.90;99.90
25914;DHT22;13718;50.922;5.346;2024-03-02T06:00:41;7.80;99.90
25914;DHT22;13718;50.922;5.346;2024-03-02T06:03:06;7.90;99.90
25914;DHT22;13718;50.922;5.346;2024-03-02T06:05:33;7.90;99.90
25914;DHT22;13718;50.922;5.346;2024-03-02T06:07:58;7.90;99.90
25914;DHT22;13718;50.922;5.346;2024-03-02T06:10:24;8.10;99.90
25914;DHT22;13718;50.922;5.346;2024-03-02T06:12:49;8.00;99.90
25914;DHT22;13718;50.922;5.346;2024-03-02T06:15:15;7.90;99.90
25914;DHT22;13718;50.922;5.346;2024-03-02T06:17:40;8.00;99.90
25914;DHT22;13718;50.922;5.346;2024-03-02T06:20:06;8.00;99.90
25914;DHT22;13718;50.922;5.346;2024-03-02T06:22:33;8.10;99.90
25914;DHT22;13718;50.922;5.346;2024-03-02T06:24:58;8.00;99.90
25914;DHT22;13718;50.922;5.346;2024-03-02T06:27:24;8.10;99.90
25914;DHT22;13718;50.922;5.346;2024-03-02T06:29:49;8.10;99.90
25914;DHT22;13718;50.922;5.346;2024-03-02T06:32:16;8.10;99.90
25914;DHT22;13718;50.922;5.346;2024-03-02T06:34:42;8.10;99.90
25914;DHT22;13718;50.922;5.346;2024-03-02T06:37:07;8.20;99.90
25914;DHT22;13718;50.922;5.346;2024-03-02T06:39:33;8.30;99.90
25914;DHT22;13718;50.922;5.346;2024-03-02T06:42:00;8.20;99.90
25914;DHT22;13718;50.922;5.346;2024-03-02T06:44:25;8.40;99.90
25914;DHT22;13718;50.922;5.346;2024-03-02T06:46:51;8.20;99.90
25914;DHT22;13718;50.922;5.346;2024-03-02T06:49:16;8.10;99.90
25914;DHT22;13718;50.922;5.346;2024-03-02T06:51:44;8.10;99.90
25914;DHT22;13718;50.922;5.346;2024-03-02T06:54:09;8.30;99.90
25914;DHT22;13718;50.922;5.346;2024-03-02T06:56:35;8.40;99.90
25914;DHT22;13718;50.922;5.346;2024-03-02T06:59:00;8.40;99.90
25914;DHT22;13718;50.922;5.346;2024-03-02T07:01:26;8.50;99.90
25914;DHT22;13718;50.922;5.346;2024-03-02T07:03:51;8.70;99.90
25914;DHT22;13718;50.922;5.346;2024-03-02T07:06:17;9.00;99.90
25914;DHT22;13718;50.922;5.346;2024-03-02T07:08:42;9.20;99.90
25914;DHT22;13718;50.922;5.346;2024-03-02T07:11:08;9.30;99.90
25914;DHT22;13718;50.922;5.346;2024-03-02T07:13:34;9.40;99.90
25914;DHT22;13718;50.922;5.346;2024-03-02T07:16:00;9.40;99.90
25914;DHT22;13718;50.922;5.346;2024-03-02T07:18:29;9.40;99.90
25914;DHT22;13718;50.922;5.346;2024-03-02T07:20:54;9.20;99.90
25914;DHT22;13718;50.922;5.346;2024-03-02T07:23:21;9.00;99.90
25914;DHT22;13718;50.922;5.346;2024-03-02T07:25:49;8.80;99.90
25914;DHT22;13718;50.922;5.346;2024-03-02T07:28:15;8.80;99.90
25914;DHT22;13718;50.922;5.346;2024-03-02T07:30:41;8.70;99.90
25914;DHT22;13718;50.922;5.346;2024-03-02T07:33:06;8.60;99.90
25914;DHT22;13718;50.922;5.346;2024-03-02T07:35:32;8.60;99.90
25914;DHT22;13718;50.922;5.346;2024-03-02T07:37:57;8.60;99.90
25914;DHT22;13718;50.922;5.346;2024-03-02T07:40:23;8.60;99.90
25914;DHT22;13718;50.922;5.346;2024-03-02T07:42:49;8.70;99.90
25914;DHT22;13718;50.922;5.346;2024-03-02T07:45:14;8.60;99.90
25914;DHT22;13718;50.922;5.346;2024-03-02T07:47:40;8.80;99.90
25914;DHT22;13718;50.922;5.346;2024-03-02T07:50:06;8.90;99.90
25914;DHT22;13718;50.922;5.346;2024-03-02T07:52:32;9.60;99.90
25914;DHT22;13718;50.922;5.346;2024-03-02T07:54:57;10.70;99.90
25914;DHT22;13718;50.922;5.346;2024-03-02T07:57:23;11.70;99.90
25914;DHT22;13718;50.922;5.346;2024-03-02T07:59:48;12.50;99.90
25914;DHT22;13718;50.922;5.346;2024-03-02T08:02:14;13.20;99.90
25914;DHT22;13718;50.922;5.346;2024-03-02T08:04:40;13.80;99.90
25914;DHT22;13718;50.922;5.346;2024-03-02T08:07:05;14.60;99.90
25914;DHT22;13718;50.922;5.346;2024-03-02T08:09:31;15.30;99.90
25914;DHT22;13718;50.922;5.346;2024-03-02T08:11:57;16.10;99.90
25914;DHT22;13718;50.922;5.346;2024-03-02T08:14:23;16.60;99.90
25914;DHT22;13718;50.922;5.346;2024-03-02T08:16:49;16.90;99.90
25914;DHT22;13718;50.922;5.346;2024-03-02T08:19:14;17.30;99.90
25914;DHT22;13718;50.922;5.346;2024-03-02T08:21:40;17.80;99.90
25914;DHT22;13718;50.922;5.346;2024-03-02T08:24:06;17.40;99.90
25914;DHT22;13718;50.922;5.346;2024-03-02T08:26:32;17.60;99.90
25914;DHT22;13718;50.922;5.346;2024-03-02T08:28:59;17.50;99.90
25914;DHT22;13718;50.922;5.346;2024-03-02T08:31:24;17.10;99.90
25914;DHT22;13718;50.922;5.346;2024-03-02T08:33:50;16.50;99.90
25914;DHT22;13718;50.922;5.346;2024-03-02T08:36:15;16.40;99.90
25914;DHT22;13718;50.922;5.346;2024-03-02T08:38:41;16.00;99.90
25914;DHT22;13718;50.922;5.346;2024-03-02T08:41:06;15.50;99.90
25914;DHT22;13718;50.922;5.346;2024-03-02T08:43:32;14.70;99.90
25914;DHT22;13718;50.922;5.346;2024-03-02T08:45:58;13.70;99.90
25914;DHT22;13718;50.922;5.346;2024-03-02T08:48:24;13.20;99.90
25914;DHT22;13718;50.922;5.346;2024-03-02T08:50:49;12.80;99.90
25914;DHT22;13718;50.922;5.346;2024-03-02T08:53:15;12.60;99.90
25914;DHT22;13718;50.922;5.346;2024-03-02T08:55:46;12.40;99.90
25914;DHT22;13718;50.922;5.346;2024-03-02T08:58:12;12.20;99.90
25914;DHT22;13718;50.922;5.346;2024-03-02T09:00:37;12.00;99.90
25914;DHT22;13718;50.922;5.346;2024-03-02T09:03:03;12.00;99.90
25914;DHT22;13718;50.922;5.346;2024-03-02T09:05:29;11.80;99.90
25914;DHT22;13718;50.922;5.346;2024-03-02T09:07:54;11.80;99.90
25914;DHT22;13718;50.922;5.346;2024-03-02T09:10:20;11.90;99.90
25914;DHT22;13718;50.922;5.346;2024-03-02T09:12:46;11.90;99.90
25914;DHT22;13718;50.922;5.346;2024-03-02T09:15:11;12.00;99.90
25914;DHT22;13718;50.922;5.346;2024-03-02T09:17:37;12.00;99.90
25914;DHT22;13718;50.922;5.346;2024-03-02T09:20:02;12.10;99.90
25914;DHT22;13718;50.922;5.346;2024-03-02T09:22:29;12.10;99.90
25914;DHT22;13718;50.922;5.346;2024-03-02T09:24:55;12.10;99.90
25914;DHT22;13718;50.922;5.346;2024-03-02T09:27:21;12.10;99.90
25914;DHT22;13718;50.922;5.346;2024-03-02T09:29:47;12.10;99.90
25914;DHT22;13718;50.922;5.346;2024-03-02T09:32:13;12.00;99.90
25914;DHT22;13718;50.922;5.346;2024-03-02T09:34:39;12.00;99.90
25914;DHT22;13718;50.922;5.346;2024-03-02T09:37:04;12.10;99.90
25914;DHT22;13718;50.922;5.346;2024-03-02T09:39:30;12.10;99.90
25914;DHT22;13718;50.922;5.346;2024-03-02T09:41:56;12.20;99.90
25914;DHT22;13718;50.922;5.346;2024-03-02T09:44:21;12.30;99.90
25914;DHT22;13718;50.922;5.346;2024-03-02T09:46:50;12.20;99.90
25914;DHT22;13718;50.922;5.346;2024-03-02T09:49:16;12.10;99.90
25914;DHT22;13718;50.922;5.346;2024-03-02T09:51:45;12.30;99.90
25914;DHT22;13718;50.922;5.346;2024-03-02T09:54:11;12.50;99.90
25914;DHT22;13718;50.922;5.346;2024-03-02T09:56:37;12.90;99.90
25914;DHT22;13718;50.922;5.346;2024-03-02T09:59:02;13.20;99.90
25914;DHT22;13718;50.922;5.346;2024-03-02T10:01:28;13.30;99.90
25914;DHT22;13718;50.922;5.346;2024-03-02T10:03:53;13.30;99.90
25914;DHT22;13718;50.922;5.346;2024-03-02T10:08:45;13.20;99.90
25914;DHT22;13718;50.922;5.346;2024-03-02T10:11:10;13.30;99.90
25914;DHT22;13718;50.922;5.346;2024-03-02T10:13:36;13.50;99.90
25914;DHT22;13718;50.922;5.346;2024-03-02T10:16:11;13.60;99.90
25914;DHT22;13718;50.922;5.346;2024-03-02T10:18:37;13.60;99.90
25914;DHT22;13718;50.922;5.346;2024-03-02T10:21:15;13.60;99.90
25914;DHT22;13718;50.922;5.346;2024-03-02T10:23:40;13.60;99.90
25914;DHT22;13718;50.922;5.346;2024-03-02T10:26:18;13.60;99.90
25914;DHT22;13718;50.922;5.346;2024-03-02T10:28:47;13.70;99.90
25914;DHT22;13718;50.922;5.346;2024-03-02T10:31:24;13.70;99.90
25914;DHT22;13718;50.922;5.346;2024-03-02T10:33:57;13.90;99.90
25914;DHT22;13718;50.922;5.346;2024-03-02T10:36:22;14.10;99.90
25914;DHT22;13718;50.922;5.346;2024-03-02T10:38:48;14.20;99.90
25914;DHT22;13718;50.922;5.346;2024-03-02T10:41:18;14.30;99.90
25914;DHT22;13718;50.922;5.346;2024-03-02T10:43:44;14.40;99.90
25914;DHT22;13718;50.922;5.346;2024-03-02T10:46:10;14.50;99.90
25914;DHT22;13718;50.922;5.346;2024-03-02T10:48:36;14.50;99.90
25914;DHT22;13718;50.922;5.346;2024-03-02T10:51:04;14.40;99.90
25914;DHT22;13718;50.922;5.346;2024-03-02T10:53:30;14.30;99.90
25914;DHT22;13718;50.922;5.346;2024-03-02T10:55:57;14.30;99.90
25914;DHT22;13718;50.922;5.346;2024-03-02T10:58:28;14.20;99.90
25914;DHT22;13718;50.922;5.346;2024-03-02T11:00:56;14.20;99.90
25914;DHT22;13718;50.922;5.346;2024-03-02T11:03:23;14.20;99.90
25914;DHT22;13718;50.922;5.346;2024-03-02T11:05:52;14.20;99.90
25914;DHT22;13718;50.922;5.346;2024-03-02T11:08:19;14.00;99.90
25914;DHT22;13718;50.922;5.346;2024-03-02T11:10:58;14.00;99.90
25914;DHT22;13718;50.922;5.346;2024-03-02T11:13:31;14.00;99.90
25914;DHT22;13718;50.922;5.346;2024-03-02T11:15:59;14.00;99.90
25914;DHT22;13718;50.922;5.346;2024-03-02T11:18:25;13.90;99.90
25914;DHT22;13718;50.922;5.346;2024-03-02T11:20:51;13.90;99.90
25914;DHT22;13718;50.922;5.346;2024-03-02T11:23:16;13.80;99.90
25914;DHT22;13718;50.922;5.346;2024-03-02T11:25:42;13.80;99.90
25914;DHT22;13718;50.922;5.346;2024-03-02T11:28:07;13.80;99.90
25914;DHT22;13718;50.922;5.346;2024-03-02T11:33:03;14.00;99.90
25914;DHT22;13718;50.922;5.346;2024-03-02T11:35:35;13.90;99.90
25914;DHT22;13718;50.922;5.346;2024-03-02T11:38:01;14.00;99.90
25914;DHT22;13718;50.922;5.346;2024-03-02T11:40:26;14.00;99.90
25914;DHT22;13718;50.922;5.346;2024-03-02T11:42:52;14.10;99.90
25914;DHT22;13718;50.922;5.346;2024-03-02T11:45:22;14.10;99.90
25914;DHT22;13718;50.922;5.346;2024-03-02T11:47:50;14.10;99.90
25914;DHT22;13718;50.922;5.346;2024-03-02T11:50:29;14.10;99.90
25914;DHT22;13718;50.922;5.346;2024-03-02T11:52:55;14.10;99.90
25914;DHT22;13718;50.922;5.346;2024-03-02T11:55:21;14.10;99.90
25914;DHT22;13718;50.922;5.346;2024-03-02T11:57:46;14.10;99.90
25914;DHT22;13718;50.922;5.346;2024-03-02T12:00:19;14.10;99.90
25914;DHT22;13718;50.922;5.346;2024-03-02T12:02:48;14.20;99.90
25914;DHT22;13718;50.922;5.346;2024-03-02T12:05:24;14.30;99.90
25914;DHT22;13718;50.922;5.346;2024-03-02T12:07:54;14.30;99.90
25914;DHT22;13718;50.922;5.346;2024-03-02T12:10:20;14.40;99.90
25914;DHT22;13718;50.922;5.346;2024-03-02T12:12:45;14.50;99.90
25914;DHT22;13718;50.922;5.346;2024-03-02T12:15:11;14.60;99.90
25914;DHT22;13718;50.922;5.346;2024-03-02T12:17:36;14.50;99.90
25914;DHT22;13718;50.922;5.346;2024-03-02T12:20:04;14.60;99.90
25914;DHT22;13718;50.922;5.346;2024-03-02T12:22:30;14.60;99.90
25914;DHT22;13718;50.922;5.346;2024-03-02T12:24:55;14.60;99.90
25914;DHT22;13718;50.922;5.346;2024-03-02T12:27:21;14.40;99.90
25914;DHT22;13718;50.922;5.346;2024-03-02T12:29:47;14.60;99.90
25914;DHT22;13718;50.922;5.346;2024-03-02T12:32:13;14.70;99.90
25914;DHT22;13718;50.922;5.346;2024-03-02T12:34:39;14.70;99.90
25914;DHT22;13718;50.922;5.346;2024-03-02T12:37:05;14.80;99.90
25914;DHT22;13718;50.922;5.346;2024-03-02T12:39:30;14.80;99.90
25914;DHT22;13718;50.922;5.346;2024-03-02T12:41:58;14.80;99.90
25914;DHT22;13718;50.922;5.346;2024-03-02T12:44:23;14.80;99.90
25914;DHT22;13718;50.922;5.346;2024-03-02T12:46:49;14.90;99.90
25914;DHT22;13718;50.922;5.346;2024-03-02T12:49:15;14.90;99.90
25914;DHT22;13718;50.922;5.346;2024-03-02T12:51:45;14.90;99.90
25914;DHT22;13718;50.922;5.346;2024-03-02T12:54:17;15.00;99.90
25914;DHT22;13718;50.922;5.346;2024-03-02T12:56:42;15.10;99.90
25914;DHT22;13718;50.922;5.346;2024-03-02T12:59:17;15.20;99.90
25914;DHT22;13718;50.922;5.346;2024-03-02T13:02:16;15.20;99.90
25914;DHT22;13718;50.922;5.346;2024-03-02T13:04:35;15.30;99.90
25914;DHT22;13718;50.922;5.346;2024-03-02T13:07:01;15.50;99.90
25914;DHT22;13718;50.922;5.346;2024-03-02T13:09:27;15.60;99.90
25914;DHT22;13718;50.922;5.346;2024-03-02T13:11:53;15.70;99.90
25914;DHT22;13718;50.922;5.346;2024-03-02T13:14:21;15.80;99.90
25914;DHT22;13718;50.922;5.346;2024-03-02T13:16:46;15.70;99.90
25914;DHT22;13718;50.922;5.346;2024-03-02T13:19:12;15.70;99.90
25914;DHT22;13718;50.922;5.346;2024-03-02T13:21:38;15.70;99.90
25914;DHT22;13718;50.922;5.346;2024-03-02T13:24:04;15.80;99.90
25914;DHT22;13718;50.922;5.346;2024-03-02T13:26:29;15.90;99.90
25914;DHT22;13718;50.922;5.346;2024-03-02T13:28:55;15.80;99.90
25914;DHT22;13718;50.922;5.346;2024-03-02T13:31:20;15.70;99.90
25914;DHT22;13718;50.922;5.346;2024-03-02T13:33:46;15.60;99.90
25914;DHT22;13718;50.922;5.346;2024-03-02T13:36:12;15.60;99.90
25914;DHT22;13718;50.922;5.346;2024-03-02T13:38:37;15.70;99.90
25914;DHT22;13718;50.922;5.346;2024-03-02T13:41:03;15.70;99.90
25914;DHT22;13718;50.922;5.346;2024-03-02T13:43:28;15.70;99.90
25914;DHT22;13718;50.922;5.346;2024-03-02T13:45:57;15.70;99.90
25914;DHT22;13718;50.922;5.346;2024-03-02T13:48:23;15.70;99.90
25914;DHT22;13718;50.922;5.346;2024-03-02T13:50:51;15.70;99.90
25914;DHT22;13718;50.922;5.346;2024-03-02T13:53:17;15.80;99.90
25914;DHT22;13718;50.922;5.346;2024-03-02T13:55:43;16.00;99.90
25914;DHT22;13718;50.922;5.346;2024-03-02T13:58:09;16.00;99.90
25914;DHT22;13718;50.922;5.346;2024-03-02T14:00:34;16.10;99.90
25914;DHT22;13718;50.922;5.346;2024-03-02T14:03:00;16.20;99.90
25914;DHT22;13718;50.922;5.346;2024-03-02T14:05:25;16.30;99.90
25914;DHT22;13718;50.922;5.346;2024-03-02T14:07:51;16.40;99.90
25914;DHT22;13718;50.922;5.346;2024-03-02T14:10:16;16.30;99.90
25914;DHT22;13718;50.922;5.346;2024-03-02T14:12:47;16.10;99.90
25914;DHT22;13718;50.922;5.346;2024-03-02T14:15:12;16.00;99.90
25914;DHT22;13718;50.922;5.346;2024-03-02T14:17:38;15.80;99.90
25914;DHT22;13718;50.922;5.346;2024-03-02T14:20:04;15.80;99.90
25914;DHT22;13718;50.922;5.346;2024-03-02T14:22:30;15.70;99.90
25914;DHT22;13718;50.922;5.346;2024-03-02T14:24:56;15.80;99.90
25914;DHT22;13718;50.922;5.346;2024-03-02T14:27:22;15.70;99.90
25914;DHT22;13718;50.922;5.346;2024-03-02T14:29:47;15.70;99.90
25914;DHT22;13718;50.922;5.346;2024-03-02T14:32:14;15.60;99.90
25914;DHT22;13718;50.922;5.346;2024-03-02T14:34:40;15.60;99.90
25914;DHT22;13718;50.922;5.346;2024-03-02T14:37:05;15.60;99.90
25914;DHT22;13718;50.922;5.346;2024-03-02T14:39:31;15.70;99.90
25914;DHT22;13718;50.922;5.346;2024-03-02T14:42:00;15.80;99.90
25914;DHT22;13718;50.922;5.346;2024-03-02T14:44:25;15.90;99.90
25914;DHT22;13718;50.922;5.346;2024-03-02T14:46:51;15.90;99.90
25914;DHT22;13718;50.922;5.346;2024-03-02T14:49:16;15.90;99.90
25914;DHT22;13718;50.922;5.346;2024-03-02T14:51:43;15.80;99.90
25914;DHT22;13718;50.922;5.346;2024-03-02T14:54:08;15.60;99.90
25914;DHT22;13718;50.922;5.346;2024-03-02T14:56:34;15.60;99.90
25914;DHT22;13718;50.922;5.346;2024-03-02T14:58:59;15.50;99.90
25914;DHT22;13718;50.922;5.346;2024-03-02T15:01:25;15.50;99.90
25914;DHT22;13718;50.922;5.346;2024-03-02T15:03:54;15.40;99.90
25914;DHT22;13718;50.922;5.346;2024-03-02T15:06:20;15.40;99.90
25914;DHT22;13718;50.922;5.346;2024-03-02T15:08:45;15.40;99.90
25914;DHT22;13718;50.922;5.346;2024-03-02T15:11:14;15.40;99.90
25914;DHT22;13718;50.922;5.346;2024-03-02T15:13:40;15.40;99.90
25914;DHT22;13718;50.922;5.346;2024-03-02T15:16:05;15.40;99.90
25914;DHT22;13718;50.922;5.346;2024-03-02T15:18:31;15.40;99.90
25914;DHT22;13718;50.922;5.346;2024-03-02T15:20:56;15.30;99.90
25914;DHT22;13718;50.922;5.346;2024-03-02T15:23:22;15.20;99.90
25914;DHT22;13718;50.922;5.346;2024-03-02T15:25:50;15.20;99.90
25914;DHT22;13718;50.922;5.346;2024-03-02T15:28:15;15.20;99.90
25914;DHT22;13718;50.922;5.346;2024-03-02T15:30:41;15.20;99.90
25914;DHT22;13718;50.922;5.346;2024-03-02T15:33:07;15.10;99.90
25914;DHT22;13718;50.922;5.346;2024-03-02T15:35:32;15.10;99.90
25914;DHT22;13718;50.922;5.346;2024-03-02T15:37:58;15.10;99.90
25914;DHT22;13718;50.922;5.346;2024-03-02T15:40:24;15.30;99.90